New Richmond, WI

03:57 PM CDT del 26 Aprile 2015 (GMT -0500)
Saint Paul Downtown-Holman | | Change Station
CLOSE
Current Station
Aeroporto
Location: St. Paul,
Altitudine: 702 ft
Stazioni meteo nelle vicinanze

Alt. 702 ft 44.93 °N, 93.06 °W | Updated 4 minutes ago

Sereno
Sereno
61 °F
Sembra 61 °F
N
0
Vento Variabile Vento da Nord

Oggi
Massima -- | Minima -- °F
--% Possibilità di precip.
Ieri
Massima -- | Minima -- °F
Precip. -- in
6:07 AM 8:09 PM
Primo quarto, 58% visible
Pressione 30.09 in
Visibilità 10.0 miglia
Nuvole Sereno
Punto di rugiada 20 °F
Umidità 21%
Piovosità 0.00 in
Spessore del manto nevoso Non disponibile.
Raggi UV 6 fuori da 12
Polline 9.20 fuori da 12
Qualità dell'aria Non disponibile.
Flu Activity Local Activity
METAR KSTP 262053Z AUTO 00000KT 10SM CLR 16/M07 A3009 RMK AO2 SLP190 T01611067 58014

More Conditions Fewer Conditions

Pressione 30.09 in
Visibilità 10.0 miglia
Nuvole Sereno
Punto di rugiada 20 °F
Umidità 21%
Piovosità 0.00 in
Spessore del manto nevoso Non disponibile.
Raggi UV 6 fuori da 12
Polline 9.20 fuori da 12
Qualità dell'aria Non disponibile.
Flu Activity Local Activity
METAR KSTP 262053Z AUTO 00000KT 10SM CLR 16/M07 A3009 RMK AO2 SLP190 T01611067 58014

More Conditions Fewer Conditions

The full scope of the disaster following a powerful 7.8-magnitude earthquake in Nepal may not come into view for days, but global charities are already sending emergency aid. Click to see how you can help.

10-Day Weather Forecast

Almanac

Astronomia

Apr. 26, 2015 Alba Tramonto
Ora attuale
Crepuscolo civile
Crepuscolo nautico
Crepuscolo astronomico
Luna
Estensione della luce visibile
Lunghezza del giorno
Tomorrow will be .
, % of the Moon is Illuminated

Gli estremi di oggi

State Highs State Lows

Community

WunderPhotos

Upload Photos

1,817,114 foto caricate!

WunderBlogs® & News

Nearby

Qualità dell'aria

  Qualità dell'aria Indice AQ Inquinante
Not available.

Profondità neve

Stazione Profondità Altitudine

Attività sismica

Città  Distanza Mag. Data & Ora
Minimo Magnitudo Mostrato è 2.5.

Temperature delle acque costiere

Località Temperatura

Stations

Stazioni meteo nelle vicinanze

Ubicazione della stazione Temp. Raffreddamento del vento Punto di rugiada Umidità Vento Precip. Alt. Aggiornato Tipo